createdAt,value
2022-08-10T00:02:13.368Z,17.60
2022-08-10T00:04:40.214Z,17.60
2022-08-10T00:07:07.146Z,17.60
2022-08-10T00:09:34.060Z,17.60
2022-08-10T00:12:19.805Z,17.50
2022-08-10T00:14:46.929Z,17.50
2022-08-10T00:17:13.932Z,17.50
2022-08-10T00:20:02.916Z,17.50
2022-08-10T00:22:27.716Z,17.50
2022-08-10T00:24:57.545Z,17.40
2022-08-10T00:27:50.042Z,17.40
2022-08-10T00:30:13.562Z,17.40
2022-08-10T00:32:40.461Z,17.40
2022-08-10T00:35:07.670Z,17.40
2022-08-10T00:37:34.620Z,17.40
2022-08-10T00:40:01.580Z,17.40
2022-08-10T00:42:28.548Z,17.40
2022-08-10T00:44:55.405Z,17.30
2022-08-10T00:47:36.192Z,17.30
2022-08-10T00:50:05.629Z,17.30
2022-08-10T00:52:32.717Z,17.30
2022-08-10T00:54:59.810Z,17.20
2022-08-10T00:57:26.856Z,17.20
2022-08-10T00:59:57.854Z,17.10
2022-08-10T01:02:27.499Z,17.10
2022-08-10T01:05:00.991Z,17.00
2022-08-10T01:07:56.289Z,17.00
2022-08-10T01:10:38.267Z,16.90
2022-08-10T01:13:31.603Z,16.80
2022-08-10T01:16:37.480Z,16.70
2022-08-10T01:19:30.677Z,16.60
2022-08-10T01:22:26.625Z,16.50
2022-08-10T01:25:17.557Z,16.50
2022-08-10T01:28:43.445Z,16.40
2022-08-10T01:31:12.959Z,16.30
2022-08-10T01:33:59.090Z,16.20
2022-08-10T01:36:32.523Z,16.20
2022-08-10T01:39:01.959Z,16.10
2022-08-10T01:41:49.084Z,16.00
2022-08-10T01:44:20.072Z,16.10
2022-08-10T01:46:48.990Z,16.00
2022-08-10T01:49:19.929Z,15.90
2022-08-10T01:51:50.996Z,15.90
2022-08-10T01:54:22.393Z,15.90
2022-08-10T01:56:51.222Z,15.80
2022-08-10T01:59:26.335Z,15.80
2022-08-10T02:01:56.226Z,15.80
2022-08-10T02:04:23.068Z,15.70
2022-08-10T02:06:51.099Z,15.70
2022-08-10T02:09:28.975Z,15.60
2022-08-10T02:12:07.607Z,15.60
2022-08-10T02:15:03.082Z,15.60
2022-08-10T02:17:59.003Z,15.60
2022-08-10T02:20:43.311Z,15.50
2022-08-10T02:23:13.287Z,15.50
2022-08-10T02:25:43.596Z,15.50
2022-08-10T02:28:30.621Z,15.50
2022-08-10T02:31:06.605Z,15.50
2022-08-10T02:33:37.095Z,15.40
2022-08-10T02:36:06.173Z,15.40
2022-08-10T02:38:58.964Z,15.40
2022-08-10T02:45:01.477Z,15.30
2022-08-10T02:45:22.917Z,15.30
2022-08-10T02:47:52.131Z,15.20
2022-08-10T02:50:25.486Z,15.20
2022-08-10T02:53:55.473Z,15.20
2022-08-10T02:56:05.563Z,15.20
2022-08-10T02:58:37.286Z,15.20
2022-08-10T03:01:05.326Z,15.20
2022-08-10T03:03:35.583Z,15.10
2022-08-10T03:06:06.372Z,15.10
2022-08-10T03:08:39.546Z,15.00
2022-08-10T03:11:06.780Z,15.00
2022-08-10T03:13:33.768Z,15.00
2022-08-10T03:16:01.650Z,15.00
2022-08-10T03:18:28.632Z,15.00
2022-08-10T03:20:55.465Z,14.90
2022-08-10T03:23:24.124Z,14.90
2022-08-10T03:25:54.793Z,14.90
2022-08-10T03:28:23.233Z,14.90
2022-08-10T03:30:50.159Z,14.80
2022-08-10T03:33:17.010Z,14.80
2022-08-10T03:35:43.872Z,14.70
2022-08-10T03:38:30.679Z,14.70
2022-08-10T03:40:57.974Z,14.70
2022-08-10T03:43:24.812Z,14.70
2022-08-10T03:45:56.726Z,14.70
2022-08-10T03:48:32.190Z,14.70
2022-08-10T03:51:14.468Z,14.70
2022-08-10T03:54:04.439Z,14.60
2022-08-10T03:56:31.862Z,14.60
2022-08-10T03:59:00.135Z,14.60
2022-08-10T04:02:43.692Z,14.50
2022-08-10T04:04:19.168Z,14.50
2022-08-10T04:06:55.011Z,14.50
2022-08-10T04:09:55.729Z,14.50
2022-08-10T04:12:12.170Z,14.40
2022-08-10T04:14:50.072Z,14.40
2022-08-10T04:17:56.357Z,14.40
2022-08-10T04:20:06.970Z,14.40
2022-08-10T04:22:34.186Z,14.40
2022-08-10T04:25:02.308Z,14.40
2022-08-10T04:27:29.829Z,14.30
2022-08-10T04:29:56.707Z,14.30
2022-08-10T04:32:23.883Z,14.30
2022-08-10T04:34:51.481Z,14.30
2022-08-10T04:37:18.606Z,14.30
2022-08-10T04:39:45.496Z,14.30
2022-08-10T04:42:12.498Z,14.30
2022-08-10T04:44:39.419Z,14.30
2022-08-10T04:47:06.242Z,14.30
2022-08-10T04:49:55.704Z,14.30
2022-08-10T04:52:21.762Z,14.30
2022-08-10T04:54:52.214Z,14.30
2022-08-10T04:57:19.791Z,14.30
2022-08-10T04:59:46.805Z,14.30
2022-08-10T05:02:31.121Z,14.30
2022-08-10T05:04:59.071Z,14.40
2022-08-10T05:07:26.022Z,14.40
2022-08-10T05:10:01.100Z,14.40
2022-08-10T05:12:37.097Z,14.50
2022-08-10T05:15:09.081Z,14.60
2022-08-10T05:17:36.230Z,14.60
2022-08-10T05:20:06.660Z,14.80
2022-08-10T05:22:39.565Z,14.90
2022-08-10T05:25:08.473Z,15.00
2022-08-10T05:27:35.464Z,15.10
2022-08-10T05:30:03.633Z,15.20
2022-08-10T05:32:56.560Z,15.30
2022-08-10T05:35:21.664Z,15.40
2022-08-10T05:38:09.384Z,15.60
2022-08-10T05:40:35.987Z,15.70
2022-08-10T05:43:02.888Z,15.80
2022-08-10T05:45:29.977Z,15.90
2022-08-10T05:48:55.624Z,16.00
2022-08-10T05:50:43.704Z,16.20
2022-08-10T05:53:59.311Z,16.30
2022-08-10T05:55:57.431Z,16.50
2022-08-10T05:58:24.375Z,16.60
2022-08-10T06:00:55.321Z,16.80
2022-08-10T06:03:27.899Z,16.90
2022-08-10T06:05:55.748Z,17.00
2022-08-10T06:08:26.738Z,17.20
2022-08-10T06:12:21.865Z,17.30
2022-08-10T06:14:12.677Z,17.40
2022-08-10T06:16:42.036Z,17.60
2022-08-10T06:19:09.059Z,17.70
2022-08-10T06:21:35.889Z,17.80
2022-08-10T06:24:02.912Z,17.90
2022-08-10T06:26:29.772Z,18.00
2022-08-10T06:29:07.826Z,18.10
2022-08-10T06:31:47.772Z,18.20
2022-08-10T06:34:24.493Z,18.20
2022-08-10T06:36:53.125Z,18.30
2022-08-10T06:39:33.399Z,18.40
2022-08-10T06:42:16.243Z,18.30
2022-08-10T06:44:52.370Z,18.40
2022-08-10T06:47:22.797Z,18.40
2022-08-10T06:49:50.625Z,18.50
2022-08-10T06:52:18.494Z,18.50
2022-08-10T06:54:45.530Z,18.60
2022-08-10T06:57:19.586Z,18.70
2022-08-10T06:59:46.655Z,18.90
2022-08-10T07:02:40.797Z,19.10
2022-08-10T07:05:08.606Z,19.30
2022-08-10T07:07:36.704Z,19.50
2022-08-10T07:10:03.894Z,19.60
2022-08-10T07:12:31.482Z,19.80
2022-08-10T07:14:58.377Z,19.90
2022-08-10T07:17:25.784Z,20.00
2022-08-10T07:19:54.774Z,20.00
2022-08-10T07:23:54.829Z,20.10
2022-08-10T07:25:09.437Z,20.00
2022-08-10T07:27:59.195Z,19.90
2022-08-10T07:30:23.916Z,19.80
2022-08-10T07:32:51.221Z,19.70
2022-08-10T07:35:18.806Z,19.80
2022-08-10T07:37:49.536Z,19.90
2022-08-10T07:40:18.335Z,20.00
2022-08-10T07:42:46.413Z,20.00
2022-08-10T07:45:13.541Z,20.00
2022-08-10T07:47:53.141Z,20.10
2022-08-10T07:50:21.578Z,20.10
2022-08-10T07:52:48.430Z,20.20
2022-08-10T07:55:17.072Z,20.20
2022-08-10T07:57:44.719Z,20.30
2022-08-10T08:00:12.207Z,20.40
2022-08-10T08:02:48.615Z,20.40
2022-08-10T08:05:57.338Z,20.50
2022-08-10T08:08:02.527Z,20.60
2022-08-10T08:10:29.774Z,20.60
2022-08-10T08:12:57.997Z,20.70
2022-08-10T08:16:21.363Z,20.80
2022-08-10T08:18:12.319Z,20.90
2022-08-10T08:20:39.788Z,20.80
2022-08-10T08:24:09.793Z,20.90
2022-08-10T08:25:54.943Z,20.90
2022-08-10T08:28:21.812Z,21.00
2022-08-10T08:30:49.108Z,21.10
2022-08-10T08:33:19.843Z,21.10
2022-08-10T08:36:03.909Z,21.20
2022-08-10T08:38:34.261Z,21.20
2022-08-10T08:41:24.521Z,21.30
2022-08-10T08:44:10.192Z,21.30
2022-08-10T08:46:59.311Z,21.40
2022-08-10T08:50:09.020Z,21.40
2022-08-10T08:52:46.393Z,21.40
2022-08-10T08:56:04.199Z,21.50
2022-08-10T08:58:27.892Z,21.60
2022-08-10T09:01:38.290Z,21.70
2022-08-10T09:04:20.098Z,21.70
2022-08-10T09:08:00.555Z,21.70
2022-08-10T09:10:11.940Z,21.80
2022-08-10T09:13:27.078Z,21.90
2022-08-10T09:16:28.014Z,22.00
2022-08-10T09:19:06.875Z,22.10
2022-08-10T09:21:43.065Z,22.10
2022-08-10T09:24:52.297Z,22.20
2022-08-10T09:27:24.946Z,22.30
2022-08-10T09:30:00.867Z,22.40
2022-08-10T09:36:17.486Z,22.40
2022-08-10T09:36:24.401Z,22.40
2022-08-10T09:39:03.659Z,22.50
2022-08-10T09:42:18.539Z,22.60
2022-08-10T09:44:57.327Z,22.70
2022-08-10T09:48:01.003Z,22.80
2022-08-10T09:51:41.721Z,23.00
2022-08-10T09:54:17.481Z,23.10
2022-08-10T09:57:24.395Z,23.20
2022-08-10T10:00:20.400Z,23.30
2022-08-10T10:03:02.510Z,23.30
2022-08-10T10:05:58.814Z,23.40
2022-08-10T10:08:36.498Z,23.40
2022-08-10T10:11:33.552Z,23.50
2022-08-10T10:14:12.323Z,23.60
2022-08-10T10:17:02.870Z,23.60
2022-08-10T10:19:44.656Z,23.80
2022-08-10T10:22:43.313Z,23.90
2022-08-10T10:25:24.049Z,24.00
2022-08-10T10:29:06.914Z,23.90
2022-08-10T10:31:41.915Z,24.00
2022-08-10T10:34:23.708Z,24.10
2022-08-10T10:36:51.964Z,24.10
2022-08-10T10:39:23.769Z,24.20
2022-08-10T10:42:18.486Z,24.20
2022-08-10T10:45:05.667Z,24.30
2022-08-10T10:47:58.799Z,24.40
2022-08-10T10:50:54.163Z,24.50
2022-08-10T10:53:32.927Z,24.50
2022-08-10T10:56:18.863Z,24.70
2022-08-10T10:59:56.180Z,24.70
2022-08-10T11:02:54.345Z,24.70
2022-08-10T11:05:36.624Z,24.80
2022-08-10T11:08:18.611Z,24.80
2022-08-10T11:11:01.072Z,24.90
2022-08-10T11:14:25.179Z,25.00
2022-08-10T11:17:01.428Z,25.10
2022-08-10T11:20:02.342Z,25.20
2022-08-10T11:22:36.520Z,25.30
2022-08-10T11:25:27.744Z,25.50
2022-08-10T11:28:22.448Z,25.60
2022-08-10T11:30:55.470Z,25.70
2022-08-10T11:34:03.992Z,25.70
2022-08-10T11:36:41.430Z,25.80
2022-08-10T11:39:14.691Z,25.80
2022-08-10T11:42:09.451Z,25.90
2022-08-10T11:44:53.679Z,26.00
2022-08-10T11:47:31.353Z,26.00
2022-08-10T11:50:26.199Z,26.00
2022-08-10T11:53:24.714Z,26.00
2022-08-10T11:55:58.329Z,26.00
2022-08-10T11:58:50.752Z,25.90
2022-08-10T12:01:20.773Z,26.00
2022-08-10T12:03:47.614Z,26.20
2022-08-10T12:06:28.677Z,26.30
2022-08-10T12:10:09.094Z,26.40
2022-08-10T12:11:54.700Z,26.30
2022-08-10T12:14:34.633Z,26.40
2022-08-10T12:17:24.886Z,26.40
2022-08-10T12:20:10.705Z,26.40
2022-08-10T12:22:55.549Z,26.50
2022-08-10T12:25:56.296Z,26.60
2022-08-10T12:28:50.205Z,26.60
2022-08-10T12:31:25.257Z,26.70
2022-08-10T12:34:30.319Z,26.80
2022-08-10T12:37:12.494Z,26.80
2022-08-10T12:40:34.034Z,26.90
2022-08-10T12:44:07.064Z,26.80
2022-08-10T12:46:36.135Z,26.80
2022-08-10T12:49:32.737Z,26.70
2022-08-10T12:52:13.810Z,26.80
2022-08-10T12:54:41.995Z,26.80
2022-08-10T12:57:19.445Z,26.70
2022-08-10T12:59:48.632Z,26.80
2022-08-10T13:02:48.941Z,26.80
2022-08-10T13:05:16.215Z,26.90
2022-08-10T13:08:24.318Z,26.80
2022-08-10T13:10:31.746Z,26.80
2022-08-10T13:12:58.634Z,26.80
2022-08-10T13:15:48.188Z,26.80
2022-08-10T13:18:19.493Z,26.90
2022-08-10T13:20:51.401Z,26.90
2022-08-10T13:23:21.796Z,27.00
2022-08-10T13:25:48.730Z,27.00
2022-08-10T13:28:37.620Z,27.00
2022-08-10T13:31:06.946Z,27.00
2022-08-10T13:34:39.683Z,27.00
2022-08-10T13:36:28.957Z,27.10
2022-08-10T13:38:56.833Z,27.10
2022-08-10T13:41:35.495Z,27.00
2022-08-10T13:44:02.276Z,26.90
2022-08-10T13:46:29.212Z,26.80
2022-08-10T13:48:56.282Z,26.90
2022-08-10T13:51:57.153Z,26.90
2022-08-10T13:54:17.847Z,26.90
2022-08-10T13:56:46.830Z,26.90
2022-08-10T13:59:16.030Z,26.90
2022-08-10T14:01:50.562Z,26.90
2022-08-10T14:04:18.759Z,27.00
2022-08-10T14:06:54.603Z,27.10
2022-08-10T14:09:25.102Z,27.10
2022-08-10T14:11:52.360Z,27.00
2022-08-10T14:14:19.677Z,27.00
2022-08-10T14:16:46.791Z,26.90
2022-08-10T14:19:24.642Z,26.90
2022-08-10T14:21:51.876Z,26.80
2022-08-10T14:24:31.853Z,27.00
2022-08-10T14:27:09.221Z,27.00
2022-08-10T14:29:44.071Z,27.00
2022-08-10T14:32:11.886Z,27.10
2022-08-10T14:36:14.896Z,27.00
2022-08-10T14:37:38.268Z,27.00
2022-08-10T14:40:12.114Z,26.90
2022-08-10T14:42:45.399Z,26.90
2022-08-10T14:45:34.232Z,27.00
2022-08-10T14:48:17.700Z,27.00
2022-08-10T14:50:55.196Z,27.00
2022-08-10T14:53:26.903Z,27.00
2022-08-10T14:56:13.496Z,26.90
2022-08-10T14:59:06.388Z,27.00
2022-08-10T15:02:00.064Z,27.10
2022-08-10T15:04:23.115Z,27.10
2022-08-10T15:06:54.942Z,27.20
2022-08-10T15:09:25.897Z,27.20
2022-08-10T15:12:13.534Z,27.20
2022-08-10T15:14:45.858Z,27.10
2022-08-10T15:17:26.802Z,27.10
2022-08-10T15:20:02.352Z,27.10
2022-08-10T15:22:37.617Z,27.10
2022-08-10T15:25:05.817Z,27.10
2022-08-10T15:27:53.931Z,27.00
2022-08-10T15:30:32.738Z,27.00
2022-08-10T15:33:57.539Z,27.00
2022-08-10T15:36:38.345Z,26.90
2022-08-10T15:40:20.440Z,26.80
2022-08-10T15:42:00.278Z,26.90
2022-08-10T15:44:34.174Z,27.00
2022-08-10T15:47:02.818Z,27.00
2022-08-10T15:49:45.533Z,26.90
2022-08-10T15:52:38.663Z,26.80
2022-08-10T15:55:41.114Z,26.80
2022-08-10T15:58:11.689Z,26.90
2022-08-10T16:00:44.355Z,27.00
2022-08-10T16:03:16.091Z,27.00
2022-08-10T16:06:01.737Z,26.90
2022-08-10T16:08:55.769Z,26.90
2022-08-10T16:11:26.686Z,26.90
2022-08-10T16:14:18.790Z,26.90
2022-08-10T16:16:50.921Z,26.90
2022-08-10T16:19:23.798Z,26.90
2022-08-10T16:22:35.278Z,26.90
2022-08-10T16:24:59.493Z,26.90
2022-08-10T16:27:27.813Z,26.90
2022-08-10T16:30:02.851Z,26.90
2022-08-10T16:32:31.312Z,26.90
2022-08-10T16:34:58.594Z,26.90
2022-08-10T16:37:56.542Z,26.90
2022-08-10T16:40:18.279Z,26.80
2022-08-10T16:42:46.970Z,26.80
2022-08-10T16:45:17.733Z,26.80
2022-08-10T16:47:47.098Z,26.80
2022-08-10T16:50:15.999Z,26.80
2022-08-10T16:52:42.923Z,26.80
2022-08-10T16:55:16.973Z,26.70
2022-08-10T16:57:53.438Z,26.60
2022-08-10T17:00:22.375Z,26.50
2022-08-10T17:02:52.742Z,26.50
2022-08-10T17:06:11.133Z,26.50
2022-08-10T17:08:11.726Z,26.50
2022-08-10T17:10:38.777Z,26.50
2022-08-10T17:13:06.741Z,26.50
2022-08-10T17:15:34.930Z,26.40
2022-08-10T17:18:03.789Z,26.40
2022-08-10T17:20:49.706Z,26.30
2022-08-10T17:23:16.696Z,26.30
2022-08-10T17:25:50.633Z,26.30
2022-08-10T17:28:24.379Z,26.30
2022-08-10T17:31:24.148Z,26.20
2022-08-10T17:34:00.792Z,26.10
2022-08-10T17:36:29.950Z,26.10
2022-08-10T17:38:56.825Z,26.10
2022-08-10T17:41:32.141Z,26.00
2022-08-10T17:44:02.506Z,26.00
2022-08-10T17:46:32.649Z,25.90
2022-08-10T17:49:00.091Z,25.90
2022-08-10T17:51:30.678Z,25.80
2022-08-10T17:53:58.519Z,25.80
2022-08-10T17:56:26.840Z,25.70
2022-08-10T17:58:59.633Z,25.70
2022-08-10T18:01:41.500Z,25.60
2022-08-10T18:04:15.371Z,25.50
2022-08-10T18:06:42.331Z,25.50
2022-08-10T18:09:12.075Z,25.50
2022-08-10T18:11:43.733Z,25.50
2022-08-10T18:14:10.679Z,25.40
2022-08-10T18:16:41.642Z,25.30
2022-08-10T18:19:11.576Z,25.20
2022-08-10T18:21:43.235Z,25.20
2022-08-10T18:24:16.268Z,25.10
2022-08-10T18:26:44.771Z,25.10
2022-08-10T18:29:18.726Z,25.10
2022-08-10T18:31:46.908Z,25.00
2022-08-10T18:34:17.783Z,25.00
2022-08-10T18:36:45.134Z,24.90
2022-08-10T18:39:13.459Z,24.80
2022-08-10T18:42:00.378Z,24.70
2022-08-10T18:44:34.385Z,24.60
2022-08-10T18:47:03.227Z,24.60
2022-08-10T18:49:36.885Z,24.50
2022-08-10T18:52:08.370Z,24.40
2022-08-10T18:54:45.977Z,24.30
2022-08-10T18:57:47.262Z,24.30
2022-08-10T19:00:20.295Z,24.20
2022-08-10T19:03:11.610Z,24.10
2022-08-10T19:06:09.467Z,24.10
2022-08-10T19:08:56.525Z,24.00
2022-08-10T19:11:58.579Z,23.90
2022-08-10T19:14:35.942Z,23.70
2022-08-10T19:18:02.875Z,23.70
2022-08-10T19:20:33.649Z,23.60
2022-08-10T19:23:26.323Z,23.50
2022-08-10T19:26:32.974Z,23.40
2022-08-10T19:29:09.773Z,23.30
2022-08-10T19:31:50.252Z,23.20
2022-08-10T19:34:44.916Z,23.20
2022-08-10T19:37:20.910Z,23.10
2022-08-10T19:40:12.138Z,23.00
2022-08-10T19:42:40.628Z,23.00
2022-08-10T19:46:02.190Z,22.90
2022-08-10T19:48:20.336Z,22.80
2022-08-10T19:51:15.752Z,22.80
2022-08-10T19:54:00.097Z,22.70
2022-08-10T19:57:00.787Z,22.60
2022-08-10T20:00:17.100Z,22.50
2022-08-10T20:03:02.427Z,22.50
2022-08-10T20:05:33.792Z,22.40
2022-08-10T20:08:28.009Z,22.30
2022-08-10T20:11:45.898Z,22.30
2022-08-10T20:14:21.456Z,22.20
2022-08-10T20:16:48.897Z,22.10
2022-08-10T20:19:52.492Z,22.00
2022-08-10T20:22:29.023Z,22.00
2022-08-10T20:25:04.697Z,21.90
2022-08-10T20:27:59.013Z,21.80
2022-08-10T20:30:26.904Z,21.80
2022-08-10T20:32:57.861Z,21.70
2022-08-10T20:35:39.841Z,21.70
2022-08-10T20:38:06.858Z,21.60
2022-08-10T20:41:00.401Z,21.60
2022-08-10T20:43:51.740Z,21.50
2022-08-10T20:46:30.200Z,21.50
2022-08-10T20:49:04.411Z,21.40
2022-08-10T20:51:58.486Z,21.40
2022-08-10T20:54:34.441Z,21.30
2022-08-10T20:57:53.517Z,21.20
2022-08-10T21:00:08.165Z,21.20
2022-08-10T21:02:56.560Z,21.10
2022-08-10T21:05:54.313Z,21.00
2022-08-10T21:08:52.025Z,21.00
2022-08-10T21:11:33.960Z,20.90
2022-08-10T21:14:06.623Z,20.90
2022-08-10T21:16:33.462Z,20.90
2022-08-10T21:19:15.642Z,20.80
2022-08-10T21:22:08.337Z,20.80
2022-08-10T21:24:45.438Z,20.70
2022-08-10T21:27:49.465Z,20.70
2022-08-10T21:30:43.449Z,20.70
2022-08-10T21:33:16.774Z,20.70
2022-08-10T21:35:51.014Z,20.60
2022-08-10T21:38:52.696Z,20.60
2022-08-10T21:41:57.767Z,20.50
2022-08-10T21:44:52.922Z,20.50
2022-08-10T21:48:06.913Z,20.40
2022-08-10T21:51:24.701Z,20.40
2022-08-10T21:54:31.361Z,20.40
2022-08-10T21:57:43.148Z,20.30
2022-08-10T22:00:46.033Z,20.30
2022-08-10T22:03:39.990Z,20.20
2022-08-10T22:06:25.665Z,20.20
2022-08-10T22:09:21.266Z,20.20
2022-08-10T22:12:31.020Z,20.20
2022-08-10T22:15:23.523Z,20.10
2022-08-10T22:18:08.645Z,20.10
2022-08-10T22:20:55.148Z,20.00
2022-08-10T22:23:40.842Z,20.00
2022-08-10T22:27:00.555Z,19.90
2022-08-10T22:30:03.953Z,19.90
2022-08-10T22:33:10.230Z,19.90
2022-08-10T22:36:10.461Z,19.80
2022-08-10T22:40:11.291Z,19.80
2022-08-10T22:42:58.435Z,19.70
2022-08-10T22:45:44.757Z,19.70
2022-08-10T22:48:29.899Z,19.60
2022-08-10T22:51:00.533Z,19.60
2022-08-10T22:54:30.890Z,19.60
2022-08-10T22:57:20.489Z,19.60
2022-08-10T22:59:47.655Z,19.50
2022-08-10T23:02:24.563Z,19.40
2022-08-10T23:04:53.592Z,19.40
2022-08-10T23:07:28.849Z,19.40
2022-08-10T23:10:05.681Z,19.40
2022-08-10T23:12:40.336Z,19.30
2022-08-10T23:15:26.546Z,19.30
2022-08-10T23:18:14.258Z,19.20
2022-08-10T23:20:41.783Z,19.10
2022-08-10T23:23:10.912Z,19.00
2022-08-10T23:25:56.533Z,19.00
2022-08-10T23:28:39.438Z,18.90
2022-08-10T23:31:11.819Z,18.80
2022-08-10T23:33:39.129Z,18.80
2022-08-10T23:36:34.513Z,18.80
2022-08-10T23:39:23.965Z,18.80
2022-08-10T23:41:40.183Z,18.80
2022-08-10T23:44:07.027Z,18.80
2022-08-10T23:46:38.172Z,18.80
2022-08-10T23:49:05.583Z,18.70
2022-08-10T23:51:55.612Z,18.70
2022-08-10T23:54:23.931Z,18.70
2022-08-10T23:56:52.533Z,18.60
2022-08-10T23:59:23.115Z,18.60
